createdAt,value
2019-04-07T00:01:45.295Z,58.10
2019-04-07T00:04:12.453Z,59.93
2019-04-07T00:06:39.446Z,59.40
2019-04-07T00:09:07.458Z,58.97
2019-04-07T00:11:34.711Z,60.47
2019-04-07T00:14:01.682Z,62.40
2019-04-07T00:16:28.910Z,58.50
2019-04-07T00:18:56.861Z,57.67
2019-04-07T00:21:24.079Z,57.30
2019-04-07T00:23:50.820Z,58.13
2019-04-07T00:26:17.840Z,58.47
2019-04-07T00:28:45.408Z,58.17
2019-04-07T00:31:12.598Z,58.07
2019-04-07T00:33:40.387Z,56.70
2019-04-07T00:36:07.402Z,61.87
2019-04-07T00:38:34.710Z,58.43
2019-04-07T00:41:03.587Z,57.40
2019-04-07T00:43:30.680Z,62.13
2019-04-07T00:45:58.030Z,60.03
2019-04-07T00:48:24.707Z,56.50
2019-04-07T00:50:51.354Z,62.23
2019-04-07T00:53:18.039Z,63.03
2019-04-07T00:55:45.254Z,60.97
2019-04-07T00:58:12.583Z,61.90
2019-04-07T01:00:41.097Z,62.77
2019-04-07T01:03:08.354Z,67.87
2019-04-07T01:05:38.905Z,62.70
2019-04-07T01:08:05.245Z,65.90
2019-04-07T01:10:32.766Z,62.83
2019-04-07T01:13:00.090Z,68.97
2019-04-07T01:15:27.241Z,62.10
2019-04-07T01:17:55.639Z,63.80
2019-04-07T01:20:22.731Z,63.07
2019-04-07T01:22:49.997Z,61.63
2019-04-07T01:25:16.889Z,62.20
2019-04-07T01:27:43.949Z,62.87
2019-04-07T01:30:10.762Z,62.30
2019-04-07T01:32:37.837Z,62.40
2019-04-07T01:35:05.015Z,58.13
2019-04-07T01:37:31.839Z,62.40
2019-04-07T01:39:59.211Z,60.20
2019-04-07T01:42:38.246Z,63.53
2019-04-07T01:45:31.150Z,57.73
2019-04-07T01:48:20.634Z,57.60
2019-04-07T01:51:10.355Z,59.90
2019-04-07T01:53:48.205Z,61.10
2019-04-07T01:56:32.648Z,57.30
2019-04-07T01:59:07.519Z,61.20
2019-04-07T02:01:54.850Z,58.50
2019-04-07T02:04:30.309Z,59.30
2019-04-07T02:07:27.271Z,59.27
2019-04-07T02:10:13.771Z,56.60
2019-04-07T02:13:05.999Z,57.77
2019-04-07T02:15:39.539Z,56.97
2019-04-07T02:18:12.640Z,58.07
2019-04-07T02:20:58.966Z,59.33
2019-04-07T02:23:49.804Z,58.37
2019-04-07T02:26:39.129Z,57.03
2019-04-07T02:29:28.081Z,59.00
2019-04-07T02:32:17.643Z,57.30
2019-04-07T02:34:53.042Z,57.37
2019-04-07T02:37:38.718Z,58.87
2019-04-07T02:40:17.903Z,62.43
2019-04-07T02:43:12.906Z,56.47
2019-04-07T02:45:56.602Z,59.33
2019-04-07T02:48:42.682Z,57.43
2019-04-07T02:51:20.127Z,59.83
2019-04-07T02:54:09.457Z,55.33
2019-04-07T02:56:45.067Z,53.70
2019-04-07T02:59:31.226Z,56.07
2019-04-07T03:02:08.177Z,55.10
2019-04-07T03:04:52.972Z,53.50
2019-04-07T03:07:54.993Z,55.00
2019-04-07T03:10:37.035Z,56.17
2019-04-07T03:13:18.223Z,55.80
2019-04-07T03:16:02.337Z,56.67
2019-04-07T03:18:40.708Z,55.93
2019-04-07T03:21:13.175Z,59.10
2019-04-07T03:24:09.391Z,60.50
2019-04-07T03:26:58.448Z,58.10
2019-04-07T03:29:43.241Z,58.87
2019-04-07T03:32:28.227Z,55.73
2019-04-07T03:35:25.221Z,52.90
2019-04-07T03:38:10.201Z,56.83
2019-04-07T03:40:51.515Z,59.30
2019-04-07T03:43:44.176Z,57.30
2019-04-07T03:46:30.595Z,57.50
2019-04-07T03:49:04.617Z,57.87
2019-04-07T03:51:38.300Z,57.40
2019-04-07T03:54:22.862Z,59.30
2019-04-07T03:57:21.624Z,59.10
2019-04-07T04:00:13.926Z,60.90
2019-04-07T04:02:48.470Z,57.80
2019-04-07T04:05:24.254Z,59.70
2019-04-07T04:08:07.425Z,57.47
2019-04-07T04:10:44.790Z,57.60
2019-04-07T04:13:46.337Z,59.80
2019-04-07T04:16:18.811Z,56.23
2019-04-07T04:18:45.851Z,61.27
2019-04-07T04:21:12.939Z,61.20
2019-04-07T04:23:42.710Z,57.80
2019-04-07T04:26:08.321Z,59.00
2019-04-07T04:28:35.103Z,65.77
2019-04-07T04:31:01.715Z,60.07
2019-04-07T04:33:28.450Z,63.97
2019-04-07T04:35:56.185Z,62.20
2019-04-07T04:38:22.878Z,65.53
2019-04-07T04:40:50.599Z,61.00
2019-04-07T04:43:17.844Z,63.10
2019-04-07T04:45:46.034Z,62.50
2019-04-07T04:48:12.995Z,63.00
2019-04-07T04:50:39.924Z,63.90
2019-04-07T04:53:09.196Z,59.10
2019-04-07T04:55:35.744Z,64.63
2019-04-07T04:58:02.371Z,62.43
2019-04-07T05:00:29.007Z,61.13
2019-04-07T05:02:56.023Z,65.20
2019-04-07T05:05:23.187Z,69.03
2019-04-07T05:08:00.086Z,61.20
2019-04-07T05:10:19.230Z,60.07
2019-04-07T05:12:47.075Z,65.13
2019-04-07T05:15:14.722Z,60.57
2019-04-07T05:17:42.081Z,61.60
2019-04-07T05:20:09.174Z,62.53
2019-04-07T05:22:36.777Z,66.23
2019-04-07T05:25:04.082Z,58.13
2019-04-07T05:27:31.230Z,63.47
2019-04-07T05:29:57.844Z,64.17
2019-04-07T05:32:26.834Z,65.30
2019-04-07T05:34:53.666Z,60.53
2019-04-07T05:37:22.191Z,62.47
2019-04-07T05:39:48.832Z,61.87
2019-04-07T05:42:15.763Z,62.20
2019-04-07T05:44:43.072Z,58.30
2019-04-07T05:47:12.279Z,60.67
2019-04-07T05:49:38.920Z,56.80
2019-04-07T05:52:06.067Z,59.50
2019-04-07T05:54:34.037Z,61.00
2019-04-07T05:57:01.642Z,58.70
2019-04-07T05:59:29.589Z,59.40
2019-04-07T06:02:00.726Z,54.90
2019-04-07T06:04:26.061Z,58.20
2019-04-07T06:06:55.350Z,62.20
2019-04-07T06:09:23.023Z,57.93
2019-04-07T06:11:50.143Z,56.87
2019-04-07T06:14:17.213Z,55.87
2019-04-07T06:16:45.116Z,55.20
2019-04-07T06:19:12.066Z,57.83
2019-04-07T06:21:39.918Z,54.63
2019-04-07T06:24:07.928Z,57.43
2019-04-07T06:26:35.076Z,54.93
2019-04-07T06:29:03.651Z,54.30
2019-04-07T06:31:32.154Z,55.47
2019-04-07T06:34:00.123Z,53.83
2019-04-07T06:36:27.047Z,56.00
2019-04-07T06:38:54.797Z,55.80
2019-04-07T06:41:21.874Z,57.10
2019-04-07T06:43:49.594Z,55.50
2019-04-07T06:46:34.516Z,56.60
2019-04-07T06:49:12.268Z,55.00
2019-04-07T06:52:02.947Z,54.30
2019-04-07T06:54:57.779Z,54.20
2019-04-07T06:57:46.952Z,55.93
2019-04-07T07:00:31.775Z,52.40
2019-04-07T07:03:07.497Z,52.60
2019-04-07T07:05:53.689Z,53.30
2019-04-07T07:08:42.543Z,55.37
2019-04-07T07:11:29.309Z,55.70
2019-04-07T07:14:04.490Z,53.10
2019-04-07T07:16:43.607Z,53.10
2019-04-07T07:19:35.175Z,54.70
2019-04-07T07:22:26.969Z,55.87
2019-04-07T07:24:57.683Z,55.57
2019-04-07T07:27:22.910Z,54.80
2019-04-07T07:29:52.834Z,55.47
2019-04-07T07:32:18.377Z,55.60
2019-04-07T07:34:44.970Z,57.47
2019-04-07T07:37:12.554Z,55.37
2019-04-07T07:39:42.721Z,59.60
2019-04-07T07:42:09.406Z,54.00
2019-04-07T07:44:38.424Z,55.47
2019-04-07T07:47:05.696Z,53.27
2019-04-07T07:49:35.154Z,55.30
2019-04-07T07:52:01.471Z,56.17
2019-04-07T07:54:30.413Z,55.50
2019-04-07T07:56:57.072Z,54.67
2019-04-07T07:59:24.111Z,52.60
2019-04-07T08:01:52.505Z,52.77
2019-04-07T08:04:19.576Z,53.63
2019-04-07T08:06:46.288Z,53.63
2019-04-07T08:09:15.475Z,52.93
2019-04-07T08:11:42.423Z,53.27
2019-04-07T08:14:09.958Z,55.10
2019-04-07T08:16:37.363Z,52.97
2019-04-07T08:19:04.239Z,57.10
2019-04-07T08:21:31.558Z,55.87
2019-04-07T08:23:58.982Z,56.60
2019-04-07T08:26:27.849Z,54.67
2019-04-07T08:28:54.792Z,54.90
2019-04-07T08:31:21.800Z,54.20
2019-04-07T08:33:51.249Z,56.60
2019-04-07T08:36:18.126Z,55.97
2019-04-07T08:38:45.624Z,54.97
2019-04-07T08:41:15.455Z,58.33
2019-04-07T08:43:42.499Z,54.27
2019-04-07T08:46:09.926Z,51.20
2019-04-07T08:48:37.408Z,53.33
2019-04-07T08:51:04.724Z,53.90
2019-04-07T08:53:34.150Z,52.40
2019-04-07T08:56:01.004Z,53.87
2019-04-07T08:58:30.008Z,53.37
2019-04-07T09:00:57.191Z,53.17
2019-04-07T09:03:24.061Z,51.97
2019-04-07T09:05:51.448Z,53.10
2019-04-07T09:08:18.226Z,52.07
2019-04-07T09:10:52.851Z,50.83
2019-04-07T09:13:20.764Z,52.13
2019-04-07T09:15:58.947Z,51.00
2019-04-07T09:18:32.016Z,51.60
2019-04-07T09:21:35.300Z,52.70
2019-04-07T09:24:11.539Z,53.27
2019-04-07T09:26:56.301Z,53.60
2019-04-07T09:29:49.217Z,54.60
2019-04-07T09:32:35.780Z,62.58
2019-04-07T09:35:24.144Z,52.97
2019-04-07T09:38:03.257Z,53.10
2019-04-07T09:40:53.083Z,56.23
2019-04-07T09:43:40.345Z,57.47
2019-04-07T09:46:31.176Z,52.00
2019-04-07T09:49:12.130Z,51.60
2019-04-07T09:51:54.183Z,55.63
2019-04-07T09:54:40.954Z,54.40
2019-04-07T09:57:38.787Z,54.60
2019-04-07T10:00:14.561Z,56.10
2019-04-07T10:03:11.692Z,55.20
2019-04-07T10:05:43.990Z,56.07
2019-04-07T10:08:30.365Z,55.37
2019-04-07T10:11:20.903Z,54.67
2019-04-07T10:14:12.611Z,56.30
2019-04-07T10:17:02.877Z,52.83
2019-04-07T10:19:53.966Z,54.80
2019-04-07T10:22:47.290Z,52.00
2019-04-07T10:25:32.195Z,51.90
2019-04-07T10:28:10.791Z,53.90
2019-04-07T10:30:57.219Z,52.50
2019-04-07T10:33:30.460Z,52.10
2019-04-07T10:36:16.746Z,52.13
2019-04-07T10:39:20.939Z,55.97
2019-04-07T10:42:06.819Z,54.10
2019-04-07T10:44:47.021Z,52.20
2019-04-07T10:47:36.840Z,55.30
2019-04-07T10:50:24.567Z,53.47
2019-04-07T10:53:20.580Z,53.80
2019-04-07T10:55:57.412Z,53.67
2019-04-07T10:58:34.804Z,50.63
2019-04-07T11:01:27.619Z,55.27
2019-04-07T11:04:12.826Z,52.83
2019-04-07T11:07:07.171Z,52.57
2019-04-07T11:09:50.738Z,51.20
2019-04-07T11:12:36.798Z,54.53
2019-04-07T11:15:31.034Z,53.10
2019-04-07T11:18:19.055Z,52.53
2019-04-07T11:20:57.239Z,51.57
2019-04-07T11:23:29.563Z,52.00
2019-04-07T11:26:18.879Z,52.10
2019-04-07T11:28:56.775Z,52.20
2019-04-07T11:31:41.231Z,54.80
2019-04-07T11:34:28.231Z,54.07
2019-04-07T11:37:12.220Z,52.20
2019-04-07T11:40:12.775Z,50.93
2019-04-07T11:42:51.043Z,53.17
2019-04-07T11:45:56.198Z,48.30
2019-04-07T11:48:35.091Z,52.50
2019-04-07T11:51:22.716Z,49.93
2019-04-07T11:54:10.388Z,51.20
2019-04-07T11:56:52.424Z,51.73
2019-04-07T11:59:39.364Z,52.63
2019-04-07T12:02:19.774Z,52.87
2019-04-07T12:05:03.191Z,51.20
2019-04-07T12:07:45.823Z,49.83
2019-04-07T12:10:56.195Z,51.80
2019-04-07T12:13:23.589Z,51.73
2019-04-07T12:16:13.335Z,51.37
2019-04-07T12:18:54.546Z,48.77
2019-04-07T12:21:47.028Z,49.77
2019-04-07T12:24:30.564Z,49.23
2019-04-07T12:27:24.052Z,47.90
2019-04-07T12:30:10.082Z,46.53
2019-04-07T12:33:09.691Z,48.03
2019-04-07T12:35:58.961Z,46.13
2019-04-07T12:38:55.283Z,47.70
2019-04-07T12:41:44.882Z,49.37
2019-04-07T12:44:31.948Z,47.47
2019-04-07T12:47:14.519Z,46.17
2019-04-07T12:49:51.952Z,45.70
2019-04-07T12:52:53.987Z,47.70
2019-04-07T12:55:59.535Z,47.73
2019-04-07T12:58:46.024Z,47.67
2019-04-07T13:01:31.726Z,46.00
2019-04-07T13:04:07.591Z,45.67
2019-04-07T13:06:57.747Z,45.80
2019-04-07T13:09:38.342Z,44.80
2019-04-07T13:12:22.289Z,47.47
2019-04-07T13:15:14.226Z,44.00
2019-04-07T13:17:53.223Z,42.27
2019-04-07T13:20:50.294Z,44.83
2019-04-07T13:23:27.654Z,43.47
2019-04-07T13:26:09.759Z,44.47
2019-04-07T13:28:43.397Z,43.30
2019-04-07T13:31:33.136Z,43.17
2019-04-07T13:34:18.813Z,42.87
2019-04-07T13:37:11.003Z,41.77
2019-04-07T13:39:55.582Z,39.10
2019-04-07T13:42:37.894Z,41.90
2019-04-07T13:45:46.215Z,42.17
2019-04-07T13:48:31.166Z,39.80
2019-04-07T13:51:18.830Z,39.23
2019-04-07T13:53:59.640Z,38.80
2019-04-07T13:57:00.171Z,40.10
2019-04-07T13:59:45.367Z,40.43
2019-04-07T14:02:26.275Z,42.37
2019-04-07T14:05:21.233Z,39.43
2019-04-07T14:08:09.265Z,39.80
2019-04-07T14:11:00.393Z,39.17
2019-04-07T14:13:38.468Z,36.83
2019-04-07T14:16:38.743Z,37.70
2019-04-07T14:19:14.998Z,39.07
2019-04-07T14:21:51.545Z,35.70
2019-04-07T14:24:28.180Z,35.43
2019-04-07T14:27:07.322Z,35.00
2019-04-07T14:29:57.177Z,37.00
2019-04-07T14:32:48.409Z,33.40
2019-04-07T14:35:35.826Z,35.20
2019-04-07T14:38:26.581Z,37.37
2019-04-07T14:41:16.019Z,39.37
2019-04-07T14:44:09.519Z,38.10
2019-04-07T14:46:49.011Z,36.93
2019-04-07T14:49:34.311Z,34.53
2019-04-07T14:52:12.179Z,35.53
2019-04-07T14:54:58.571Z,38.37
2019-04-07T14:57:40.670Z,37.37
2019-04-07T15:00:33.732Z,37.90
2019-04-07T15:03:02.082Z,39.13
2019-04-07T15:05:31.024Z,35.60
2019-04-07T15:08:16.301Z,39.47
2019-04-07T15:10:46.295Z,38.17
2019-04-07T15:13:17.189Z,38.13
2019-04-07T15:15:44.293Z,38.20
2019-04-07T15:18:11.656Z,39.13
2019-04-07T15:20:39.163Z,38.20
2019-04-07T15:23:07.379Z,34.70
2019-04-07T15:25:34.241Z,38.03
2019-04-07T15:28:01.297Z,37.50
2019-04-07T15:30:28.402Z,36.30
2019-04-07T15:32:58.588Z,35.33
2019-04-07T15:35:24.419Z,34.07
2019-04-07T15:37:52.421Z,36.57
2019-04-07T15:40:20.432Z,37.83
2019-04-07T15:42:50.577Z,36.60
2019-04-07T15:45:16.559Z,38.90
2019-04-07T15:47:44.514Z,39.17
2019-04-07T15:50:11.747Z,37.27
2019-04-07T15:52:42.177Z,38.90
2019-04-07T15:55:08.426Z,37.30
2019-04-07T15:57:37.392Z,38.60
2019-04-07T16:00:05.501Z,37.60
2019-04-07T16:02:33.474Z,38.20
2019-04-07T16:05:02.616Z,37.67
2019-04-07T16:07:30.588Z,37.13
2019-04-07T16:09:58.477Z,37.13
2019-04-07T16:12:26.347Z,34.17
2019-04-07T16:14:53.577Z,34.53
2019-04-07T16:17:21.100Z,36.63
2019-04-07T16:19:52.028Z,36.90
2019-04-07T16:22:17.407Z,38.63
2019-04-07T16:24:45.128Z,40.83
2019-04-07T16:27:12.203Z,38.30
2019-04-07T16:29:39.832Z,37.10
2019-04-07T16:32:08.117Z,37.40
2019-04-07T16:34:38.145Z,37.30
2019-04-07T16:37:03.848Z,36.90
2019-04-07T16:39:34.540Z,35.53
2019-04-07T16:42:01.915Z,34.20
2019-04-07T16:44:29.690Z,37.57
2019-04-07T16:46:59.216Z,35.40
2019-04-07T16:49:25.749Z,35.90
2019-04-07T16:51:53.266Z,36.97
2019-04-07T16:54:20.375Z,37.90
2019-04-07T16:56:50.794Z,38.73
2019-04-07T16:59:16.639Z,40.53
2019-04-07T17:01:43.599Z,39.17
2019-04-07T17:04:10.781Z,41.27
2019-04-07T17:06:37.918Z,41.97
2019-04-07T17:09:07.608Z,42.40
2019-04-07T17:11:38.803Z,40.23
2019-04-07T17:14:05.378Z,42.20
2019-04-07T17:16:32.296Z,42.60
2019-04-07T17:18:59.816Z,41.80
2019-04-07T17:21:27.646Z,40.43
2019-04-07T17:23:55.987Z,41.90
2019-04-07T17:26:24.200Z,42.93
2019-04-07T17:28:51.176Z,43.93
2019-04-07T17:31:18.773Z,43.53
2019-04-07T17:33:46.935Z,45.40
2019-04-07T17:36:18.801Z,44.80
2019-04-07T17:39:05.504Z,44.17
2019-04-07T17:41:33.805Z,41.73
2019-04-07T17:44:23.380Z,43.90
2019-04-07T17:47:13.713Z,45.43
2019-04-07T17:50:06.128Z,42.17
2019-04-07T17:52:45.652Z,44.73
2019-04-07T17:55:42.179Z,42.57
2019-04-07T17:58:29.901Z,44.40
2019-04-07T18:01:15.879Z,44.20
2019-04-07T18:04:02.651Z,41.00
2019-04-07T18:06:44.047Z,44.10
2019-04-07T18:09:30.976Z,41.10
2019-04-07T18:12:16.141Z,41.20
2019-04-07T18:14:57.441Z,44.10
2019-04-07T18:17:46.726Z,41.23
2019-04-07T18:20:28.296Z,43.47
2019-04-07T18:23:13.424Z,42.70
2019-04-07T18:25:45.876Z,41.67
2019-04-07T18:28:30.448Z,44.80
2019-04-07T18:31:15.620Z,45.37
2019-04-07T18:34:14.270Z,42.87
2019-04-07T18:36:55.379Z,42.57
2019-04-07T18:40:00.376Z,41.50
2019-04-07T18:42:44.364Z,44.43
2019-04-07T18:45:17.796Z,44.57
2019-04-07T18:48:13.574Z,44.87
2019-04-07T18:51:10.614Z,45.50
2019-04-07T18:53:43.363Z,44.60
2019-04-07T18:56:29.858Z,45.87
2019-04-07T18:59:21.783Z,47.60
2019-04-07T19:02:11.089Z,46.40
2019-04-07T19:05:01.979Z,45.87
2019-04-07T19:07:47.798Z,47.80
2019-04-07T19:10:32.369Z,50.33
2019-04-07T19:13:24.722Z,47.67
2019-04-07T19:16:18.856Z,46.93
2019-04-07T19:19:00.697Z,50.10
2019-04-07T19:21:51.580Z,48.10
2019-04-07T19:24:35.619Z,49.80
2019-04-07T19:27:19.639Z,50.43
2019-04-07T19:29:53.209Z,53.40
2019-04-07T19:32:38.935Z,50.37
2019-04-07T19:35:23.903Z,46.47
2019-04-07T19:38:13.192Z,51.50
2019-04-07T19:41:06.780Z,53.60
2019-04-07T19:44:02.361Z,48.23
2019-04-07T19:46:43.500Z,54.03
2019-04-07T19:49:50.191Z,48.10
2019-04-07T19:52:34.174Z,54.57
2019-04-07T19:55:25.631Z,51.30
2019-04-07T19:58:22.069Z,53.60
2019-04-07T20:01:06.255Z,53.27
2019-04-07T20:03:48.165Z,54.37
2019-04-07T20:06:27.845Z,52.80
2019-04-07T20:09:17.581Z,50.47
2019-04-07T20:12:02.843Z,53.33
2019-04-07T20:14:56.566Z,52.47
2019-04-07T20:17:50.450Z,58.20
2019-04-07T20:20:23.901Z,56.10
2019-04-07T20:23:04.414Z,57.10
2019-04-07T20:25:45.981Z,58.53
2019-04-07T20:28:21.447Z,54.03
2019-04-07T20:31:03.779Z,53.43
2019-04-07T20:34:05.587Z,56.43
2019-04-07T20:36:42.250Z,53.77
2019-04-07T20:39:32.582Z,58.40
2019-04-07T20:42:13.439Z,60.27
2019-04-07T20:45:14.124Z,60.20
2019-04-07T20:48:01.651Z,60.30
2019-04-07T20:50:46.050Z,58.40
2019-04-07T20:53:23.795Z,59.73
2019-04-07T20:56:11.554Z,63.13
2019-04-07T20:58:59.408Z,57.73
2019-04-07T21:01:42.980Z,59.83
2019-04-07T21:04:27.475Z,60.13
2019-04-07T21:07:16.413Z,61.23
2019-04-07T21:09:55.577Z,60.37
2019-04-07T21:12:57.637Z,59.10
2019-04-07T21:15:32.081Z,64.40
2019-04-07T21:18:31.485Z,58.40
2019-04-07T21:21:04.589Z,60.43
2019-04-07T21:23:52.800Z,65.80
2019-04-07T21:26:28.712Z,62.30
2019-04-07T21:29:19.251Z,61.23
2019-04-07T21:32:01.437Z,54.03
2019-04-07T21:34:43.249Z,61.40
2019-04-07T21:37:45.072Z,60.93
2019-04-07T21:40:18.732Z,55.57
2019-04-07T21:42:55.147Z,61.23
2019-04-07T21:45:38.983Z,62.37
2019-04-07T21:48:15.817Z,62.60
2019-04-07T21:51:15.442Z,58.67
2019-04-07T21:53:50.838Z,57.53
2019-04-07T21:56:36.866Z,60.83
2019-04-07T21:59:20.092Z,59.70
2019-04-07T22:02:13.773Z,63.23
2019-04-07T22:04:56.820Z,57.50
2019-04-07T22:07:51.666Z,60.73
2019-04-07T22:10:20.348Z,58.43
2019-04-07T22:12:47.767Z,62.30
2019-04-07T22:15:15.386Z,61.60
2019-04-07T22:17:42.158Z,58.83
2019-04-07T22:20:08.927Z,60.43
2019-04-07T22:22:35.531Z,57.30
2019-04-07T22:25:06.107Z,59.27
2019-04-07T22:27:31.415Z,57.23
2019-04-07T22:29:59.793Z,59.20
2019-04-07T22:32:27.555Z,62.10
2019-04-07T22:34:54.821Z,63.47
2019-04-07T22:37:22.612Z,64.20
2019-04-07T22:39:50.556Z,61.27
2019-04-07T22:42:18.280Z,60.23
2019-04-07T22:44:45.797Z,66.60
2019-04-07T22:47:14.393Z,63.13
2019-04-07T22:49:42.844Z,63.77
2019-04-07T22:52:10.175Z,64.90
2019-04-07T22:54:36.885Z,67.77
2019-04-07T22:57:08.154Z,64.70
2019-04-07T22:59:33.167Z,63.13
2019-04-07T23:02:00.038Z,58.70
2019-04-07T23:04:26.657Z,67.13
2019-04-07T23:06:53.896Z,64.77
2019-04-07T23:09:20.559Z,62.00
2019-04-07T23:11:49.064Z,59.33
2019-04-07T23:14:16.032Z,65.57
2019-04-07T23:16:43.020Z,64.43
2019-04-07T23:19:10.920Z,68.00
2019-04-07T23:21:38.157Z,61.10
2019-04-07T23:24:05.473Z,79.80
2019-04-07T23:26:34.126Z,72.13
2019-04-07T23:29:00.957Z,65.60
2019-04-07T23:31:29.961Z,64.37
2019-04-07T23:33:56.726Z,62.80
2019-04-07T23:36:24.200Z,63.63
2019-04-07T23:38:51.695Z,65.20
2019-04-07T23:41:18.715Z,65.03
2019-04-07T23:43:46.259Z,60.80
2019-04-07T23:46:20.677Z,60.13
2019-04-07T23:48:42.367Z,62.77
2019-04-07T23:51:10.306Z,58.40
2019-04-07T23:53:55.435Z,58.13
2019-04-07T23:56:22.234Z,55.90
2019-04-07T23:58:48.851Z,55.67
